createdAt,value
2022-12-25T00:00:00.805Z,199.0
2022-12-25T00:05:00.751Z,202.7
2022-12-25T00:10:00.717Z,222.0
2022-12-25T00:15:00.792Z,210.3
2022-12-25T00:20:00.738Z,202.9
2022-12-25T00:25:00.720Z,211.3
2022-12-25T00:30:00.775Z,217.0
2022-12-25T00:35:00.777Z,202.7
2022-12-25T00:40:00.759Z,174.6
2022-12-25T00:45:00.895Z,180.0
2022-12-25T00:50:00.770Z,178.8
2022-12-25T00:55:00.746Z,201.2
2022-12-25T01:00:00.802Z,198.2
2022-12-25T01:05:00.761Z,184.2
2022-12-25T01:10:00.789Z,194.3
2022-12-25T01:15:00.760Z,201.2
2022-12-25T01:20:00.834Z,186.9
2022-12-25T01:25:00.737Z,202.2
2022-12-25T01:30:00.764Z,199.7
2022-12-25T01:35:00.773Z,218.4
2022-12-25T01:40:00.782Z,202.8
2022-12-25T01:45:00.729Z,202.6
2022-12-25T01:50:00.757Z,190.7
2022-12-25T01:55:00.728Z,191.7
2022-12-25T02:00:00.799Z,180.3
2022-12-25T02:05:00.767Z,180.0
2022-12-25T02:10:00.790Z,180.0
2022-12-25T02:15:06.827Z,180.0
2022-12-25T02:20:00.774Z,180.0
2022-12-25T02:25:00.748Z,151.3
2022-12-25T02:30:00.861Z,135.1
2022-12-25T02:35:00.760Z,111.4
2022-12-25T02:40:00.963Z,132.0
2022-12-25T02:45:00.785Z,135.0
2022-12-25T02:50:00.802Z,135.0
2022-12-25T02:55:00.783Z,135.0
2022-12-25T03:00:00.836Z,144.2
2022-12-25T03:05:00.881Z,157.4
2022-12-25T03:10:00.838Z,157.5
2022-12-25T03:15:00.799Z,157.6
2022-12-25T03:20:00.815Z,157.5
2022-12-25T03:25:00.792Z,157.5
2022-12-25T03:30:00.906Z,157.5
2022-12-25T03:35:00.812Z,157.5
2022-12-25T03:40:00.833Z,157.5
2022-12-25T03:45:00.838Z,157.5
2022-12-25T03:50:00.835Z,157.5
2022-12-25T03:55:00.843Z,157.5
2022-12-25T04:00:00.853Z,157.5
2022-12-25T04:05:00.810Z,157.5
2022-12-25T04:10:00.810Z,157.5
2022-12-25T04:15:00.734Z,157.5
2022-12-25T04:20:00.790Z,157.5
2022-12-25T04:25:00.764Z,157.5
2022-12-25T04:30:00.823Z,135.8
2022-12-25T04:35:00.737Z,112.6
2022-12-25T04:40:00.749Z,112.5
2022-12-25T04:45:00.754Z,145.8
2022-12-25T04:50:00.746Z,179.5
2022-12-25T04:55:00.749Z,180.0
2022-12-25T05:00:00.772Z,180.0
2022-12-25T05:05:00.849Z,180.0
2022-12-25T05:10:00.817Z,180.0
2022-12-25T05:15:00.776Z,180.0
2022-12-25T05:20:00.791Z,180.0
2022-12-25T05:25:00.740Z,180.0
2022-12-25T05:30:00.789Z,180.0
2022-12-25T05:35:00.867Z,180.0
2022-12-25T05:40:00.718Z,180.0
2022-12-25T05:45:00.819Z,180.0
2022-12-25T05:50:00.738Z,180.0
2022-12-25T05:55:00.750Z,180.0
2022-12-25T06:00:00.814Z,180.0
2022-12-25T06:05:00.736Z,180.0
2022-12-25T06:10:00.752Z,180.0
2022-12-25T06:15:00.783Z,180.0
2022-12-25T06:20:00.800Z,180.0
2022-12-25T06:25:00.821Z,180.0
2022-12-25T06:30:00.771Z,180.0
2022-12-25T06:35:00.709Z,180.0
2022-12-25T06:40:00.790Z,180.0
2022-12-25T06:45:00.822Z,180.0
2022-12-25T06:50:00.794Z,180.0
2022-12-25T06:55:00.860Z,180.0
2022-12-25T07:00:00.783Z,180.0
2022-12-25T07:05:00.741Z,180.0
2022-12-25T07:10:00.778Z,180.0
2022-12-25T07:15:00.763Z,180.0
2022-12-25T07:20:00.781Z,180.0
2022-12-25T07:25:00.752Z,180.0
2022-12-25T07:30:00.970Z,180.0
2022-12-25T07:35:00.891Z,180.0
2022-12-25T07:40:00.742Z,180.0
2022-12-25T07:45:00.781Z,180.0
2022-12-25T07:50:00.934Z,180.0
2022-12-25T07:55:00.723Z,180.0
2022-12-25T08:00:00.817Z,180.0
2022-12-25T08:05:00.726Z,180.0
2022-12-25T08:10:00.819Z,180.0
2022-12-25T08:15:00.764Z,180.0
2022-12-25T08:20:00.771Z,180.0
2022-12-25T08:25:00.823Z,180.0
2022-12-25T08:30:00.785Z,180.0
2022-12-25T08:35:00.817Z,180.0
2022-12-25T08:40:00.904Z,180.0
2022-12-25T08:45:00.780Z,158.6
2022-12-25T08:50:01.445Z,157.5
2022-12-25T08:55:00.744Z,136.6
2022-12-25T09:00:00.786Z,113.5
2022-12-25T09:05:00.756Z,98.7
2022-12-25T09:10:00.775Z,67.7
2022-12-25T09:15:00.788Z,82.9
2022-12-25T09:20:00.768Z,90.0
2022-12-25T09:25:00.730Z,67.7
2022-12-25T09:30:00.749Z,156.3
2022-12-25T09:35:00.772Z,156.7
2022-12-25T09:40:00.814Z,169.0
2022-12-25T09:45:00.836Z,153.3
2022-12-25T09:50:00.762Z,161.6
2022-12-25T09:55:00.743Z,156.6
2022-12-25T10:00:00.760Z,93.7
2022-12-25T10:05:00.782Z,118.2
2022-12-25T10:10:00.905Z,155.4
2022-12-25T10:15:00.787Z,137.5
2022-12-25T10:20:00.768Z,120.7
2022-12-25T10:25:00.749Z,152.7
2022-12-25T10:30:00.795Z,153.8
2022-12-25T10:35:00.752Z,132.0
2022-12-25T10:40:00.798Z,155.3
2022-12-25T10:45:00.881Z,158.5
2022-12-25T10:50:00.761Z,162.2
2022-12-25T10:55:00.780Z,246.6
2022-12-25T11:00:00.763Z,158.6
2022-12-25T11:05:00.759Z,80.0
2022-12-25T11:10:06.348Z,65.4
2022-12-25T11:15:00.772Z,128.4
2022-12-25T11:20:00.762Z,133.8
2022-12-25T11:25:00.739Z,144.1
2022-12-25T11:30:00.759Z,174.3
2022-12-25T11:35:00.762Z,100.3
2022-12-25T11:40:00.813Z,106.1
2022-12-25T11:45:00.760Z,124.6
2022-12-25T11:50:01.588Z,147.1
2022-12-25T11:55:01.191Z,132.5
2022-12-25T12:00:00.789Z,112.5
2022-12-25T12:05:00.731Z,105.0
2022-12-25T12:10:00.759Z,149.9
2022-12-25T12:15:00.802Z,161.2
2022-12-25T12:20:00.792Z,155.6
2022-12-25T12:25:00.750Z,148.7
2022-12-25T12:30:00.793Z,151.8
2022-12-25T12:35:00.745Z,170.7
2022-12-25T12:40:00.769Z,149.7
2022-12-25T12:45:00.787Z,129.7
2022-12-25T12:50:00.800Z,147.8
2022-12-25T12:55:00.796Z,148.8
2022-12-25T13:00:11.424Z,111.6
2022-12-25T13:05:00.782Z,141.1
2022-12-25T13:10:00.773Z,134.0
2022-12-25T13:15:01.364Z,125.4
2022-12-25T13:20:00.762Z,139.9
2022-12-25T13:25:00.775Z,143.7
2022-12-25T13:30:00.780Z,122.3
2022-12-25T13:35:00.874Z,111.1
2022-12-25T13:40:00.816Z,145.0
2022-12-25T13:45:00.837Z,162.7
2022-12-25T13:50:00.799Z,126.9
2022-12-25T13:55:00.758Z,101.9
2022-12-25T14:00:00.823Z,85.7
2022-12-25T14:05:00.788Z,78.0
2022-12-25T14:10:00.770Z,81.7
2022-12-25T14:15:00.791Z,137.6
2022-12-25T14:20:09.327Z,152.8
2022-12-25T14:25:00.738Z,158.4
2022-12-25T14:30:00.814Z,182.1
2022-12-25T14:35:00.838Z,133.5
2022-12-25T14:40:00.832Z,155.7
2022-12-25T14:45:00.765Z,100.0
2022-12-25T14:50:00.757Z,120.1
2022-12-25T14:55:00.744Z,90.0
2022-12-25T15:00:00.747Z,128.6
2022-12-25T15:05:00.806Z,152.8
2022-12-25T15:10:58.719Z,147.0
2022-12-25T15:15:00.781Z,152.2
2022-12-25T15:20:00.820Z,158.3
2022-12-25T15:25:14.240Z,159.7
2022-12-25T15:30:11.622Z,153.2
2022-12-25T15:35:00.828Z,156.1
2022-12-25T15:40:02.913Z,152.4
2022-12-25T15:45:00.806Z,152.1
2022-12-25T15:50:01.913Z,156.7
2022-12-25T15:55:00.788Z,147.1
2022-12-25T16:00:01.065Z,148.5
2022-12-25T16:05:10.837Z,156.7
2022-12-25T16:10:01.116Z,158.0
2022-12-25T16:15:00.731Z,154.7
2022-12-25T16:20:01.231Z,145.5
2022-12-25T16:25:00.813Z,157.0
2022-12-25T16:30:00.899Z,157.2
2022-12-25T16:35:00.728Z,138.7
2022-12-25T16:40:00.917Z,148.6
2022-12-25T16:45:00.778Z,151.6
2022-12-25T16:50:00.786Z,135.7
2022-12-25T16:55:01.436Z,151.1
2022-12-25T17:00:00.847Z,142.8
2022-12-25T17:05:00.816Z,141.2
2022-12-25T17:10:00.836Z,158.1
2022-12-25T17:15:00.854Z,153.1
2022-12-25T17:20:00.878Z,161.6
2022-12-25T17:25:00.796Z,160.7
2022-12-25T17:30:00.870Z,155.5
2022-12-25T17:35:00.773Z,156.4
2022-12-25T17:40:00.776Z,153.5
2022-12-25T17:45:00.816Z,95.9
2022-12-25T17:50:00.810Z,90.8
2022-12-25T17:55:00.823Z,71.1
2022-12-25T18:00:00.781Z,94.5
2022-12-25T18:05:00.720Z,74.1
2022-12-25T18:10:00.777Z,161.5
2022-12-25T18:15:00.772Z,153.1
2022-12-25T18:20:00.764Z,109.4
2022-12-25T18:25:00.766Z,153.9
2022-12-25T18:30:00.783Z,159.7
2022-12-25T18:35:00.729Z,180.1
2022-12-25T18:40:00.743Z,155.5
2022-12-25T18:45:00.749Z,150.4
2022-12-25T18:50:00.758Z,152.2
2022-12-25T18:55:00.763Z,156.7
2022-12-25T19:00:00.856Z,172.0
2022-12-25T19:05:00.767Z,155.8
2022-12-25T19:10:00.764Z,160.6
2022-12-25T19:15:00.770Z,165.2
2022-12-25T19:20:00.860Z,158.6
2022-12-25T19:25:00.811Z,144.3
2022-12-25T19:30:00.826Z,165.6
2022-12-25T19:35:00.740Z,156.5
2022-12-25T19:40:00.776Z,161.0
2022-12-25T19:45:00.809Z,159.4
2022-12-25T19:50:04.060Z,155.4
2022-12-25T19:55:00.825Z,117.9
2022-12-25T20:00:00.908Z,177.5
2022-12-25T20:05:00.755Z,168.5
2022-12-25T20:10:00.803Z,161.1
2022-12-25T20:15:00.891Z,165.1
2022-12-25T20:20:00.805Z,163.8
2022-12-25T20:25:00.755Z,162.0
2022-12-25T20:30:00.763Z,162.9
2022-12-25T20:35:00.831Z,170.7
2022-12-25T20:40:00.823Z,184.1
2022-12-25T20:45:01.032Z,172.7
2022-12-25T20:50:00.788Z,169.9
2022-12-25T20:55:00.741Z,166.9
2022-12-25T21:00:00.770Z,170.2
2022-12-25T21:05:00.810Z,173.7
2022-12-25T21:10:00.787Z,181.8
2022-12-25T21:15:00.858Z,168.0
2022-12-25T21:20:00.864Z,168.5
2022-12-25T21:25:00.842Z,177.1
2022-12-25T21:30:16.179Z,183.4
2022-12-25T21:35:00.815Z,180.8
2022-12-25T21:40:00.743Z,176.3
2022-12-25T21:45:00.860Z,172.9
2022-12-25T21:50:00.745Z,175.1
2022-12-25T21:55:00.752Z,170.8
2022-12-25T22:00:00.870Z,169.6
2022-12-25T22:05:00.740Z,178.4
2022-12-25T22:10:00.786Z,180.1
2022-12-25T22:15:00.840Z,176.7
2022-12-25T22:20:00.784Z,178.5
2022-12-25T22:25:00.949Z,183.9
2022-12-25T22:30:00.794Z,184.2
2022-12-25T22:35:00.886Z,176.1
2022-12-25T22:40:00.768Z,187.1
2022-12-25T22:45:00.872Z,186.2
2022-12-25T22:50:00.791Z,188.9
2022-12-25T22:55:00.902Z,184.8
2022-12-25T23:00:00.928Z,188.9
2022-12-25T23:05:00.744Z,181.8
2022-12-25T23:10:00.882Z,185.8
2022-12-25T23:15:00.994Z,185.4
2022-12-25T23:20:00.770Z,185.9
2022-12-25T23:25:00.754Z,178.2
2022-12-25T23:30:00.904Z,177.5
2022-12-25T23:35:00.747Z,191.4
2022-12-25T23:40:00.764Z,191.0
2022-12-25T23:45:00.747Z,186.1
2022-12-25T23:50:00.782Z,189.7
2022-12-25T23:55:00.750Z,194.6
